This is the latest recevied weather packets stored in our database for station/object KI7CSN-13. If no packets are shown the sender has not sent any weather packets the latest 10 day(s).
| Time | Temp. | Humidity | Pressure | Rain* | Wind** | Luminosity | Snow |
|---|---|---|---|---|---|---|---|
| 1777512476 | 22.78° C | 17% | 982.2 hPa | 0 mm | - | - | - |
| 1777512176 | 22.78° C | 17% | 982.3 hPa | 0 mm | - | - | - |
| 1777511876 | 22.78° C | 16% | 982.2 hPa | 0 mm | - | - | - |
| 1777511576 | 22.78° C | 17% | 982.2 hPa | 0 mm | - | - | - |
| 1777511276 | 23.33° C | 16% | 982.2 hPa | 0 mm | - | - | - |
| 1777510976 | 22.78° C | 16% | 982.1 hPa | 0 mm | - | - | - |
| 1777510676 | 22.78° C | 17% | 982.2 hPa | 0 mm | - | - | - |
| 1777510376 | 22.78° C | 16% | 982.2 hPa | 0 mm | - | - | - |
| 1777510076 | 23.89° C | 16% | 982.1 hPa | 0 mm | - | - | - |
| 1777509776 | 23.89° C | 16% | 982 hPa | 0 mm | - | - | - |
| 1777509476 | 23.89° C | 13% | 982.1 hPa | 0 mm | - | - | - |
| 1777509176 | 23.33° C | 13% | 982.3 hPa | 0 mm | - | - | - |
| 1777508876 | 23.89° C | 12% | 982.1 hPa | 0 mm | - | - | - |
| 1777508576 | 23.89° C | 12% | 982.1 hPa | 0 mm | - | - | - |
| 1777508276 | 23.33° C | 12% | 982.1 hPa | 0 mm | - | - | - |
| 1777507976 | 24.44° C | 12% | 982 hPa | 0 mm | - | - | - |
| 1777507676 | 23.89° C | 12% | 982 hPa | 0 mm | - | - | - |
| 1777507376 | 24.44° C | 12% | 982.2 hPa | 0 mm | - | - | - |
| 1777507076 | 23.89° C | 12% | 982.2 hPa | 0 mm | - | - | - |
| 1777506776 | 25° C | 12% | 982 hPa | 0 mm | - | - | - |
| 1777506476 | 24.44° C | 13% | 982.2 hPa | 0 mm | - | - | - |
| 1777506176 | 24.44° C | 13% | 982.1 hPa | 0 mm | - | - | - |
| 1777505876 | 24.44° C | 12% | 982.2 hPa | 0 mm | - | - | - |
| 1777505576 | 23.33° C | 12% | 982.3 hPa | 0 mm | - | - | - |
| 1777505276 | 24.44° C | 11% | 982.1 hPa | 0 mm | - | - | - |
* Rain latest hour (hover to see other rain measurements)
** Current wind speed in m/s (hover to see current wind gust speed)